<?xml version="1.0" encoding="UTF-8" standalone="no" ?>
<gpx xmlns="http://www.topografix.com/GPX/1/1" xmlns:xsi="http://www.w3.org/2001/XMLSchema-instance" xsi:schemaLocation="http://www.topografix.com/GPX/1/1 http://www.topografix.com/GPX/1/1/gpx.xsd" version="1.1" creator="VisuGPX - https://www.visugpx.com">
  <metadata>
    <name>Cyclo - Vieux Boucau - Léon</name>
    <desc><![CDATA[Petit rando cyclo sous les pins des landes...sans voitures donc très agréable !]]></desc>
  </metadata>
  <trk>
    <name><![CDATA[LEON]]></name>
    <trkseg>
      <trkpt lat="43.7835" lon="-1.39154">
        <ele>-57.54</ele>
        <time>2012-07-29T19:29:00Z</time>
      </trkpt>
      <trkpt lat="43.78307" lon="-1.39184">
        <ele>-56.1</ele>
        <time>2012-07-30T06:47:11Z</time>
      </trkpt>
      <trkpt lat="43.78336" lon="-1.39194">
        <ele>-50.33</ele>
        <time>2012-07-30T06:47:40Z</time>
      </trkpt>
      <trkpt lat="43.78321" lon="-1.39178">
        <ele>15.52</ele>
        <time>2012-07-30T06:50:13Z</time>
      </trkpt>
      <trkpt lat="43.78284" lon="-1.39306">
        <ele>14.56</ele>
        <time>2012-07-30T06:51:11Z</time>
      </trkpt>
      <trkpt lat="43.78286" lon="-1.39433">
        <ele>14.08</ele>
        <time>2012-07-30T06:51:43Z</time>
      </trkpt>
      <trkpt lat="43.78264" lon="-1.3956">
        <ele>14.08</ele>
        <time>2012-07-30T06:52:13Z</time>
      </trkpt>
      <trkpt lat="43.78317" lon="-1.3963">
        <ele>13.6</ele>
        <time>2012-07-30T06:52:42Z</time>
      </trkpt>
      <trkpt lat="43.78408" lon="-1.39613">
        <ele>13.12</ele>
        <time>2012-07-30T06:53:00Z</time>
      </trkpt>
      <trkpt lat="43.78495" lon="-1.3958">
        <ele>13.6</ele>
        <time>2012-07-30T06:53:22Z</time>
      </trkpt>
      <trkpt lat="43.78582" lon="-1.39543">
        <ele>13.12</ele>
        <time>2012-07-30T06:53:43Z</time>
      </trkpt>
      <trkpt lat="43.7867" lon="-1.39507">
        <ele>12.63</ele>
        <time>2012-07-30T06:53:59Z</time>
      </trkpt>
      <trkpt lat="43.78753" lon="-1.39454">
        <ele>13.12</ele>
        <time>2012-07-30T06:54:14Z</time>
      </trkpt>
      <trkpt lat="43.78828" lon="-1.39378">
        <ele>13.6</ele>
        <time>2012-07-30T06:54:30Z</time>
      </trkpt>
      <trkpt lat="43.78898" lon="-1.39291">
        <ele>13.12</ele>
        <time>2012-07-30T06:54:46Z</time>
      </trkpt>
      <trkpt lat="43.78967" lon="-1.39209">
        <ele>12.15</ele>
        <time>2012-07-30T06:55:03Z</time>
      </trkpt>
      <trkpt lat="43.79037" lon="-1.39126">
        <ele>12.15</ele>
        <time>2012-07-30T06:55:19Z</time>
      </trkpt>
      <trkpt lat="43.79106" lon="-1.39041">
        <ele>12.15</ele>
        <time>2012-07-30T06:55:35Z</time>
      </trkpt>
      <trkpt lat="43.79178" lon="-1.38949">
        <ele>12.15</ele>
        <time>2012-07-30T06:55:52Z</time>
      </trkpt>
      <trkpt lat="43.79249" lon="-1.38865">
        <ele>11.67</ele>
        <time>2012-07-30T06:56:07Z</time>
      </trkpt>
      <trkpt lat="43.79324" lon="-1.38778">
        <ele>12.63</ele>
        <time>2012-07-30T06:56:23Z</time>
      </trkpt>
      <trkpt lat="43.79396" lon="-1.3869">
        <ele>12.63</ele>
        <time>2012-07-30T06:56:39Z</time>
      </trkpt>
      <trkpt lat="43.79467" lon="-1.38599">
        <ele>12.63</ele>
        <time>2012-07-30T06:56:55Z</time>
      </trkpt>
      <trkpt lat="43.79539" lon="-1.38502">
        <ele>12.15</ele>
        <time>2012-07-30T06:57:11Z</time>
      </trkpt>
      <trkpt lat="43.79614" lon="-1.38415">
        <ele>11.67</ele>
        <time>2012-07-30T06:57:26Z</time>
      </trkpt>
      <trkpt lat="43.79692" lon="-1.3833">
        <ele>11.67</ele>
        <time>2012-07-30T06:57:41Z</time>
      </trkpt>
      <trkpt lat="43.79777" lon="-1.38268">
        <ele>11.67</ele>
        <time>2012-07-30T06:57:56Z</time>
      </trkpt>
      <trkpt lat="43.79865" lon="-1.38219">
        <ele>10.71</ele>
        <time>2012-07-30T06:58:10Z</time>
      </trkpt>
      <trkpt lat="43.79951" lon="-1.3817">
        <ele>10.71</ele>
        <time>2012-07-30T06:58:24Z</time>
      </trkpt>
      <trkpt lat="43.80036" lon="-1.38122">
        <ele>10.71</ele>
        <time>2012-07-30T06:58:38Z</time>
      </trkpt>
      <trkpt lat="43.80121" lon="-1.38065">
        <ele>10.23</ele>
        <time>2012-07-30T06:58:53Z</time>
      </trkpt>
      <trkpt lat="43.80195" lon="-1.37991">
        <ele>10.23</ele>
        <time>2012-07-30T06:59:07Z</time>
      </trkpt>
      <trkpt lat="43.80272" lon="-1.37913">
        <ele>9.75</ele>
        <time>2012-07-30T06:59:21Z</time>
      </trkpt>
      <trkpt lat="43.80351" lon="-1.37838">
        <ele>9.75</ele>
        <time>2012-07-30T06:59:34Z</time>
      </trkpt>
      <trkpt lat="43.80429" lon="-1.37758">
        <ele>11.19</ele>
        <time>2012-07-30T06:59:48Z</time>
      </trkpt>
      <trkpt lat="43.80506" lon="-1.37679">
        <ele>11.67</ele>
        <time>2012-07-30T07:00:01Z</time>
      </trkpt>
      <trkpt lat="43.80584" lon="-1.37599">
        <ele>11.67</ele>
        <time>2012-07-30T07:00:14Z</time>
      </trkpt>
      <trkpt lat="43.80669" lon="-1.3752">
        <ele>12.63</ele>
        <time>2012-07-30T07:00:27Z</time>
      </trkpt>
      <trkpt lat="43.80747" lon="-1.37446">
        <ele>12.63</ele>
        <time>2012-07-30T07:00:41Z</time>
      </trkpt>
      <trkpt lat="43.80827" lon="-1.37368">
        <ele>13.12</ele>
        <time>2012-07-30T07:00:55Z</time>
      </trkpt>
      <trkpt lat="43.80903" lon="-1.37291">
        <ele>13.6</ele>
        <time>2012-07-30T07:01:09Z</time>
      </trkpt>
      <trkpt lat="43.80972" lon="-1.37226">
        <ele>14.56</ele>
        <time>2012-07-30T07:01:31Z</time>
      </trkpt>
      <trkpt lat="43.81046" lon="-1.3715">
        <ele>14.08</ele>
        <time>2012-07-30T07:01:48Z</time>
      </trkpt>
      <trkpt lat="43.81121" lon="-1.37079">
        <ele>13.6</ele>
        <time>2012-07-30T07:02:01Z</time>
      </trkpt>
      <trkpt lat="43.81199" lon="-1.37002">
        <ele>14.08</ele>
        <time>2012-07-30T07:02:15Z</time>
      </trkpt>
      <trkpt lat="43.81275" lon="-1.36924">
        <ele>14.56</ele>
        <time>2012-07-30T07:02:28Z</time>
      </trkpt>
      <trkpt lat="43.81354" lon="-1.36858">
        <ele>16</ele>
        <time>2012-07-30T07:02:43Z</time>
      </trkpt>
      <trkpt lat="43.81446" lon="-1.36822">
        <ele>16</ele>
        <time>2012-07-30T07:02:59Z</time>
      </trkpt>
      <trkpt lat="43.81538" lon="-1.36807">
        <ele>16.48</ele>
        <time>2012-07-30T07:03:14Z</time>
      </trkpt>
      <trkpt lat="43.8163" lon="-1.3679">
        <ele>16.96</ele>
        <time>2012-07-30T07:03:28Z</time>
      </trkpt>
      <trkpt lat="43.81724" lon="-1.36774">
        <ele>16.48</ele>
        <time>2012-07-30T07:03:42Z</time>
      </trkpt>
      <trkpt lat="43.8182" lon="-1.36759">
        <ele>16.48</ele>
        <time>2012-07-30T07:03:55Z</time>
      </trkpt>
      <trkpt lat="43.81916" lon="-1.36728">
        <ele>16.48</ele>
        <time>2012-07-30T07:04:08Z</time>
      </trkpt>
      <trkpt lat="43.82004" lon="-1.36677">
        <ele>16.96</ele>
        <time>2012-07-30T07:04:21Z</time>
      </trkpt>
      <trkpt lat="43.82092" lon="-1.36631">
        <ele>17.92</ele>
        <time>2012-07-30T07:04:35Z</time>
      </trkpt>
      <trkpt lat="43.82182" lon="-1.36574">
        <ele>17.92</ele>
        <time>2012-07-30T07:04:51Z</time>
      </trkpt>
      <trkpt lat="43.82274" lon="-1.36525">
        <ele>17.92</ele>
        <time>2012-07-30T07:05:06Z</time>
      </trkpt>
      <trkpt lat="43.82362" lon="-1.36473">
        <ele>18.4</ele>
        <time>2012-07-30T07:05:21Z</time>
      </trkpt>
      <trkpt lat="43.82449" lon="-1.36425">
        <ele>18.88</ele>
        <time>2012-07-30T07:05:35Z</time>
      </trkpt>
      <trkpt lat="43.82535" lon="-1.36376">
        <ele>19.36</ele>
        <time>2012-07-30T07:05:49Z</time>
      </trkpt>
      <trkpt lat="43.8262" lon="-1.36327">
        <ele>19.36</ele>
        <time>2012-07-30T07:06:02Z</time>
      </trkpt>
      <trkpt lat="43.82707" lon="-1.36277">
        <ele>18.88</ele>
        <time>2012-07-30T07:06:15Z</time>
      </trkpt>
      <trkpt lat="43.82792" lon="-1.3623">
        <ele>18.88</ele>
        <time>2012-07-30T07:06:28Z</time>
      </trkpt>
      <trkpt lat="43.82876" lon="-1.36181">
        <ele>18.88</ele>
        <time>2012-07-30T07:06:41Z</time>
      </trkpt>
      <trkpt lat="43.82964" lon="-1.3613">
        <ele>19.36</ele>
        <time>2012-07-30T07:06:55Z</time>
      </trkpt>
      <trkpt lat="43.8305" lon="-1.36081">
        <ele>20.32</ele>
        <time>2012-07-30T07:07:09Z</time>
      </trkpt>
      <trkpt lat="43.83136" lon="-1.36032">
        <ele>20.81</ele>
        <time>2012-07-30T07:07:23Z</time>
      </trkpt>
      <trkpt lat="43.83229" lon="-1.3598">
        <ele>20.81</ele>
        <time>2012-07-30T07:07:37Z</time>
      </trkpt>
      <trkpt lat="43.83324" lon="-1.35948">
        <ele>21.29</ele>
        <time>2012-07-30T07:07:51Z</time>
      </trkpt>
      <trkpt lat="43.8342" lon="-1.35948">
        <ele>21.29</ele>
        <time>2012-07-30T07:08:05Z</time>
      </trkpt>
      <trkpt lat="43.83512" lon="-1.35955">
        <ele>20.81</ele>
        <time>2012-07-30T07:08:18Z</time>
      </trkpt>
      <trkpt lat="43.83604" lon="-1.35956">
        <ele>20.81</ele>
        <time>2012-07-30T07:08:32Z</time>
      </trkpt>
      <trkpt lat="43.83697" lon="-1.35926">
        <ele>20.81</ele>
        <time>2012-07-30T07:08:46Z</time>
      </trkpt>
      <trkpt lat="43.83788" lon="-1.35878">
        <ele>21.29</ele>
        <time>2012-07-30T07:09:00Z</time>
      </trkpt>
      <trkpt lat="43.83871" lon="-1.35828">
        <ele>22.25</ele>
        <time>2012-07-30T07:09:14Z</time>
      </trkpt>
      <trkpt lat="43.83959" lon="-1.35779">
        <ele>22.25</ele>
        <time>2012-07-30T07:09:27Z</time>
      </trkpt>
      <trkpt lat="43.84049" lon="-1.35726">
        <ele>22.73</ele>
        <time>2012-07-30T07:09:41Z</time>
      </trkpt>
      <trkpt lat="43.8414" lon="-1.35674">
        <ele>23.21</ele>
        <time>2012-07-30T07:09:54Z</time>
      </trkpt>
      <trkpt lat="43.84232" lon="-1.35619">
        <ele>22.73</ele>
        <time>2012-07-30T07:10:08Z</time>
      </trkpt>
      <trkpt lat="43.84319" lon="-1.3557">
        <ele>23.21</ele>
        <time>2012-07-30T07:10:21Z</time>
      </trkpt>
      <trkpt lat="43.84406" lon="-1.35517">
        <ele>22.25</ele>
        <time>2012-07-30T07:10:36Z</time>
      </trkpt>
      <trkpt lat="43.84492" lon="-1.35466">
        <ele>22.25</ele>
        <time>2012-07-30T07:10:49Z</time>
      </trkpt>
      <trkpt lat="43.84579" lon="-1.35418">
        <ele>22.25</ele>
        <time>2012-07-30T07:11:02Z</time>
      </trkpt>
      <trkpt lat="43.84664" lon="-1.35368">
        <ele>21.77</ele>
        <time>2012-07-30T07:11:15Z</time>
      </trkpt>
      <trkpt lat="43.84752" lon="-1.35317">
        <ele>22.25</ele>
        <time>2012-07-30T07:11:28Z</time>
      </trkpt>
      <trkpt lat="43.84838" lon="-1.35265">
        <ele>22.25</ele>
        <time>2012-07-30T07:11:43Z</time>
      </trkpt>
      <trkpt lat="43.84922" lon="-1.35208">
        <ele>22.25</ele>
        <time>2012-07-30T07:11:56Z</time>
      </trkpt>
      <trkpt lat="43.84995" lon="-1.35132">
        <ele>21.29</ele>
        <time>2012-07-30T07:12:08Z</time>
      </trkpt>
      <trkpt lat="43.85052" lon="-1.3503">
        <ele>21.29</ele>
        <time>2012-07-30T07:12:20Z</time>
      </trkpt>
      <trkpt lat="43.85108" lon="-1.34924">
        <ele>21.29</ele>
        <time>2012-07-30T07:12:32Z</time>
      </trkpt>
      <trkpt lat="43.85163" lon="-1.34819">
        <ele>21.77</ele>
        <time>2012-07-30T07:12:44Z</time>
      </trkpt>
      <trkpt lat="43.85223" lon="-1.34698">
        <ele>21.77</ele>
        <time>2012-07-30T07:12:56Z</time>
      </trkpt>
      <trkpt lat="43.85276" lon="-1.34589">
        <ele>22.73</ele>
        <time>2012-07-30T07:13:08Z</time>
      </trkpt>
      <trkpt lat="43.85329" lon="-1.3448">
        <ele>23.21</ele>
        <time>2012-07-30T07:13:22Z</time>
      </trkpt>
      <trkpt lat="43.85384" lon="-1.34375">
        <ele>23.21</ele>
        <time>2012-07-30T07:13:37Z</time>
      </trkpt>
      <trkpt lat="43.85439" lon="-1.34266">
        <ele>23.69</ele>
        <time>2012-07-30T07:13:53Z</time>
      </trkpt>
      <trkpt lat="43.85494" lon="-1.34157">
        <ele>24.17</ele>
        <time>2012-07-30T07:14:09Z</time>
      </trkpt>
      <trkpt lat="43.85555" lon="-1.34049">
        <ele>25.13</ele>
        <time>2012-07-30T07:14:24Z</time>
      </trkpt>
      <trkpt lat="43.85619" lon="-1.3395">
        <ele>25.61</ele>
        <time>2012-07-30T07:14:38Z</time>
      </trkpt>
      <trkpt lat="43.85684" lon="-1.33852">
        <ele>27.05</ele>
        <time>2012-07-30T07:14:55Z</time>
      </trkpt>
      <trkpt lat="43.85747" lon="-1.3376">
        <ele>25.61</ele>
        <time>2012-07-30T07:15:11Z</time>
      </trkpt>
      <trkpt lat="43.85811" lon="-1.33661">
        <ele>24.65</ele>
        <time>2012-07-30T07:15:26Z</time>
      </trkpt>
      <trkpt lat="43.85873" lon="-1.3356">
        <ele>23.69</ele>
        <time>2012-07-30T07:15:40Z</time>
      </trkpt>
      <trkpt lat="43.85917" lon="-1.33449">
        <ele>23.21</ele>
        <time>2012-07-30T07:15:54Z</time>
      </trkpt>
      <trkpt lat="43.85948" lon="-1.33326">
        <ele>23.21</ele>
        <time>2012-07-30T07:16:08Z</time>
      </trkpt>
      <trkpt lat="43.8598" lon="-1.33203">
        <ele>24.17</ele>
        <time>2012-07-30T07:16:23Z</time>
      </trkpt>
      <trkpt lat="43.86013" lon="-1.33082">
        <ele>25.13</ele>
        <time>2012-07-30T07:16:39Z</time>
      </trkpt>
      <trkpt lat="43.86058" lon="-1.32969">
        <ele>26.09</ele>
        <time>2012-07-30T07:16:54Z</time>
      </trkpt>
      <trkpt lat="43.86116" lon="-1.32872">
        <ele>24.65</ele>
        <time>2012-07-30T07:17:08Z</time>
      </trkpt>
      <trkpt lat="43.86184" lon="-1.3279">
        <ele>23.69</ele>
        <time>2012-07-30T07:17:21Z</time>
      </trkpt>
      <trkpt lat="43.86255" lon="-1.32702">
        <ele>22.73</ele>
        <time>2012-07-30T07:17:35Z</time>
      </trkpt>
      <trkpt lat="43.86327" lon="-1.32616">
        <ele>21.77</ele>
        <time>2012-07-30T07:17:49Z</time>
      </trkpt>
      <trkpt lat="43.86399" lon="-1.3253">
        <ele>20.81</ele>
        <time>2012-07-30T07:18:03Z</time>
      </trkpt>
      <trkpt lat="43.86459" lon="-1.32428">
        <ele>21.29</ele>
        <time>2012-07-30T07:18:18Z</time>
      </trkpt>
      <trkpt lat="43.86476" lon="-1.32382">
        <ele>21.29</ele>
        <time>2012-07-30T07:18:52Z</time>
      </trkpt>
      <trkpt lat="43.86506" lon="-1.32263">
        <ele>20.81</ele>
        <time>2012-07-30T07:19:11Z</time>
      </trkpt>
      <trkpt lat="43.86535" lon="-1.32138">
        <ele>20.32</ele>
        <time>2012-07-30T07:19:29Z</time>
      </trkpt>
      <trkpt lat="43.86565" lon="-1.32014">
        <ele>20.32</ele>
        <time>2012-07-30T07:19:45Z</time>
      </trkpt>
      <trkpt lat="43.86595" lon="-1.3189">
        <ele>19.36</ele>
        <time>2012-07-30T07:20:00Z</time>
      </trkpt>
      <trkpt lat="43.86622" lon="-1.31762">
        <ele>18.4</ele>
        <time>2012-07-30T07:20:15Z</time>
      </trkpt>
      <trkpt lat="43.86649" lon="-1.31637">
        <ele>18.88</ele>
        <time>2012-07-30T07:20:30Z</time>
      </trkpt>
      <trkpt lat="43.86679" lon="-1.31509">
        <ele>19.36</ele>
        <time>2012-07-30T07:20:46Z</time>
      </trkpt>
      <trkpt lat="43.86708" lon="-1.3138">
        <ele>19.84</ele>
        <time>2012-07-30T07:21:02Z</time>
      </trkpt>
      <trkpt lat="43.86738" lon="-1.31255">
        <ele>20.32</ele>
        <time>2012-07-30T07:21:18Z</time>
      </trkpt>
      <trkpt lat="43.86764" lon="-1.31121">
        <ele>21.29</ele>
        <time>2012-07-30T07:21:36Z</time>
      </trkpt>
      <trkpt lat="43.86797" lon="-1.30991">
        <ele>21.29</ele>
        <time>2012-07-30T07:21:54Z</time>
      </trkpt>
      <trkpt lat="43.86846" lon="-1.30878">
        <ele>20.81</ele>
        <time>2012-07-30T07:22:11Z</time>
      </trkpt>
      <trkpt lat="43.86907" lon="-1.30775">
        <ele>20.32</ele>
        <time>2012-07-30T07:22:27Z</time>
      </trkpt>
      <trkpt lat="43.86969" lon="-1.30672">
        <ele>20.32</ele>
        <time>2012-07-30T07:22:43Z</time>
      </trkpt>
      <trkpt lat="43.87025" lon="-1.3057">
        <ele>20.81</ele>
        <time>2012-07-30T07:22:58Z</time>
      </trkpt>
      <trkpt lat="43.87072" lon="-1.30458">
        <ele>20.32</ele>
        <time>2012-07-30T07:23:13Z</time>
      </trkpt>
      <trkpt lat="43.87113" lon="-1.30345">
        <ele>20.32</ele>
        <time>2012-07-30T07:23:28Z</time>
      </trkpt>
      <trkpt lat="43.87159" lon="-1.30229">
        <ele>20.32</ele>
        <time>2012-07-30T07:23:44Z</time>
      </trkpt>
      <trkpt lat="43.87211" lon="-1.30138">
        <ele>21.29</ele>
        <time>2012-07-30T07:24:03Z</time>
      </trkpt>
      <trkpt lat="43.87263" lon="-1.3005">
        <ele>20.81</ele>
        <time>2012-07-30T07:24:31Z</time>
      </trkpt>
      <trkpt lat="43.87341" lon="-1.30112">
        <ele>20.81</ele>
        <time>2012-07-30T07:25:03Z</time>
      </trkpt>
      <trkpt lat="43.87419" lon="-1.30177">
        <ele>23.21</ele>
        <time>2012-07-30T07:25:28Z</time>
      </trkpt>
      <trkpt lat="43.87504" lon="-1.30216">
        <ele>26.09</ele>
        <time>2012-07-30T07:25:59Z</time>
      </trkpt>
      <trkpt lat="43.87565" lon="-1.30287">
        <ele>29.94</ele>
        <time>2012-07-30T07:26:46Z</time>
      </trkpt>
      <trkpt lat="43.87599" lon="-1.30297">
        <ele>28.02</ele>
        <time>2012-07-30T07:27:49Z</time>
      </trkpt>
      <trkpt lat="43.87693" lon="-1.30277">
        <ele>22.25</ele>
        <time>2012-07-30T07:28:06Z</time>
      </trkpt>
      <trkpt lat="43.87776" lon="-1.30289">
        <ele>18.4</ele>
        <time>2012-07-30T07:28:20Z</time>
      </trkpt>
      <trkpt lat="43.87861" lon="-1.30333">
        <ele>17.92</ele>
        <time>2012-07-30T07:28:37Z</time>
      </trkpt>
      <trkpt lat="43.87926" lon="-1.30391">
        <ele>17.44</ele>
        <time>2012-07-30T07:28:58Z</time>
      </trkpt>
      <trkpt lat="43.88002" lon="-1.30455">
        <ele>17.44</ele>
        <time>2012-07-30T07:29:21Z</time>
      </trkpt>
      <trkpt lat="43.88075" lon="-1.30536">
        <ele>16</ele>
        <time>2012-07-30T07:29:39Z</time>
      </trkpt>
      <trkpt lat="43.88147" lon="-1.30621">
        <ele>16.48</ele>
        <time>2012-07-30T07:29:58Z</time>
      </trkpt>
      <trkpt lat="43.88202" lon="-1.30725">
        <ele>16</ele>
        <time>2012-07-30T07:30:16Z</time>
      </trkpt>
      <trkpt lat="43.88253" lon="-1.30833">
        <ele>15.52</ele>
        <time>2012-07-30T07:30:33Z</time>
      </trkpt>
      <trkpt lat="43.88288" lon="-1.30953">
        <ele>14.56</ele>
        <time>2012-07-30T07:30:50Z</time>
      </trkpt>
      <trkpt lat="43.88309" lon="-1.31075">
        <ele>14.56</ele>
        <time>2012-07-30T07:31:06Z</time>
      </trkpt>
      <trkpt lat="43.88353" lon="-1.31189">
        <ele>14.08</ele>
        <time>2012-07-30T07:31:22Z</time>
      </trkpt>
      <trkpt lat="43.88394" lon="-1.31306">
        <ele>14.56</ele>
        <time>2012-07-30T07:31:39Z</time>
      </trkpt>
      <trkpt lat="43.88432" lon="-1.31418">
        <ele>14.56</ele>
        <time>2012-07-30T07:31:56Z</time>
      </trkpt>
      <trkpt lat="43.88514" lon="-1.31487">
        <ele>13.6</ele>
        <time>2012-07-30T07:32:13Z</time>
      </trkpt>
      <trkpt lat="43.886" lon="-1.31542">
        <ele>12.63</ele>
        <time>2012-07-30T07:32:30Z</time>
      </trkpt>
      <trkpt lat="43.88686" lon="-1.31595">
        <ele>11.67</ele>
        <time>2012-07-30T07:32:47Z</time>
      </trkpt>
      <trkpt lat="43.8875" lon="-1.31663">
        <ele>10.71</ele>
        <time>2012-07-30T07:33:13Z</time>
      </trkpt>
      <trkpt lat="43.88725" lon="-1.31789">
        <ele>10.71</ele>
        <time>2012-07-30T07:34:02Z</time>
      </trkpt>
      <trkpt lat="43.8866" lon="-1.31899">
        <ele>10.71</ele>
        <time>2012-07-30T07:34:55Z</time>
      </trkpt>
      <trkpt lat="43.88606" lon="-1.32022">
        <ele>10.71</ele>
        <time>2012-07-30T07:35:47Z</time>
      </trkpt>
      <trkpt lat="43.88633" lon="-1.31898">
        <ele>11.19</ele>
        <time>2012-07-30T07:36:25Z</time>
      </trkpt>
      <trkpt lat="43.88644" lon="-1.31773">
        <ele>11.19</ele>
        <time>2012-07-30T07:36:56Z</time>
      </trkpt>
      <trkpt lat="43.88688" lon="-1.31652">
        <ele>10.71</ele>
        <time>2012-07-30T07:37:24Z</time>
      </trkpt>
      <trkpt lat="43.88646" lon="-1.31578">
        <ele>11.67</ele>
        <time>2012-07-30T07:37:53Z</time>
      </trkpt>
      <trkpt lat="43.88561" lon="-1.31524">
        <ele>12.63</ele>
        <time>2012-07-30T07:38:17Z</time>
      </trkpt>
      <trkpt lat="43.8848" lon="-1.31469">
        <ele>14.08</ele>
        <time>2012-07-30T07:38:40Z</time>
      </trkpt>
      <trkpt lat="43.88408" lon="-1.31382">
        <ele>14.08</ele>
        <time>2012-07-30T07:39:04Z</time>
      </trkpt>
      <trkpt lat="43.88374" lon="-1.31261">
        <ele>13.6</ele>
        <time>2012-07-30T07:39:26Z</time>
      </trkpt>
      <trkpt lat="43.88333" lon="-1.3115">
        <ele>13.6</ele>
        <time>2012-07-30T07:39:46Z</time>
      </trkpt>
      <trkpt lat="43.88296" lon="-1.31032">
        <ele>13.6</ele>
        <time>2012-07-30T07:40:07Z</time>
      </trkpt>
      <trkpt lat="43.88272" lon="-1.30905">
        <ele>14.08</ele>
        <time>2012-07-30T07:40:28Z</time>
      </trkpt>
      <trkpt lat="43.88231" lon="-1.30793">
        <ele>14.56</ele>
        <time>2012-07-30T07:40:49Z</time>
      </trkpt>
      <trkpt lat="43.88178" lon="-1.30687">
        <ele>15.52</ele>
        <time>2012-07-30T07:41:10Z</time>
      </trkpt>
      <trkpt lat="43.88119" lon="-1.3059">
        <ele>15.52</ele>
        <time>2012-07-30T07:41:30Z</time>
      </trkpt>
      <trkpt lat="43.88044" lon="-1.30515">
        <ele>15.52</ele>
        <time>2012-07-30T07:41:50Z</time>
      </trkpt>
      <trkpt lat="43.87975" lon="-1.30436">
        <ele>16.48</ele>
        <time>2012-07-30T07:42:10Z</time>
      </trkpt>
      <trkpt lat="43.87897" lon="-1.3037">
        <ele>16.48</ele>
        <time>2012-07-30T07:42:30Z</time>
      </trkpt>
      <trkpt lat="43.87812" lon="-1.30315">
        <ele>17.44</ele>
        <time>2012-07-30T07:42:51Z</time>
      </trkpt>
      <trkpt lat="43.87726" lon="-1.3028">
        <ele>19.84</ele>
        <time>2012-07-30T07:43:16Z</time>
      </trkpt>
      <trkpt lat="43.87638" lon="-1.30302">
        <ele>25.61</ele>
        <time>2012-07-30T07:43:40Z</time>
      </trkpt>
      <trkpt lat="43.87549" lon="-1.30288">
        <ele>29.94</ele>
        <time>2012-07-30T07:44:06Z</time>
      </trkpt>
      <trkpt lat="43.8753" lon="-1.30285">
        <ele>29.46</ele>
        <time>2012-07-30T07:45:03Z</time>
      </trkpt>
      <trkpt lat="43.8753" lon="-1.30273">
        <ele>28.02</ele>
        <time>2012-07-30T08:22:06Z</time>
      </trkpt>
      <trkpt lat="43.87461" lon="-1.30209">
        <ele>26.57</ele>
        <time>2012-07-30T08:22:55Z</time>
      </trkpt>
      <trkpt lat="43.87382" lon="-1.3015">
        <ele>22.73</ele>
        <time>2012-07-30T08:23:11Z</time>
      </trkpt>
      <trkpt lat="43.873" lon="-1.30106">
        <ele>22.25</ele>
        <time>2012-07-30T08:23:27Z</time>
      </trkpt>
      <trkpt lat="43.87237" lon="-1.30077">
        <ele>23.21</ele>
        <time>2012-07-30T08:23:49Z</time>
      </trkpt>
      <trkpt lat="43.87181" lon="-1.30163">
        <ele>23.21</ele>
        <time>2012-07-30T08:25:34Z</time>
      </trkpt>
      <trkpt lat="43.87139" lon="-1.3028">
        <ele>22.73</ele>
        <time>2012-07-30T08:25:54Z</time>
      </trkpt>
      <trkpt lat="43.87097" lon="-1.30398">
        <ele>22.73</ele>
        <time>2012-07-30T08:26:13Z</time>
      </trkpt>
      <trkpt lat="43.87052" lon="-1.30512">
        <ele>22.73</ele>
        <time>2012-07-30T08:26:32Z</time>
      </trkpt>
      <trkpt lat="43.87001" lon="-1.30621">
        <ele>22.73</ele>
        <time>2012-07-30T08:26:51Z</time>
      </trkpt>
      <trkpt lat="43.86943" lon="-1.30722">
        <ele>22.73</ele>
        <time>2012-07-30T08:27:07Z</time>
      </trkpt>
      <trkpt lat="43.86885" lon="-1.3082">
        <ele>22.25</ele>
        <time>2012-07-30T08:27:23Z</time>
      </trkpt>
      <trkpt lat="43.86829" lon="-1.30924">
        <ele>22.73</ele>
        <time>2012-07-30T08:27:41Z</time>
      </trkpt>
      <trkpt lat="43.86789" lon="-1.3105">
        <ele>22.25</ele>
        <time>2012-07-30T08:28:00Z</time>
      </trkpt>
      <trkpt lat="43.86758" lon="-1.31182">
        <ele>22.73</ele>
        <time>2012-07-30T08:28:19Z</time>
      </trkpt>
      <trkpt lat="43.86727" lon="-1.31313">
        <ele>21.29</ele>
        <time>2012-07-30T08:28:36Z</time>
      </trkpt>
      <trkpt lat="43.86696" lon="-1.31448">
        <ele>20.32</ele>
        <time>2012-07-30T08:28:54Z</time>
      </trkpt>
      <trkpt lat="43.86667" lon="-1.31577">
        <ele>20.32</ele>
        <time>2012-07-30T08:29:12Z</time>
      </trkpt>
      <trkpt lat="43.86637" lon="-1.31707">
        <ele>19.84</ele>
        <time>2012-07-30T08:29:30Z</time>
      </trkpt>
      <trkpt lat="43.86607" lon="-1.31831">
        <ele>19.84</ele>
        <time>2012-07-30T08:29:47Z</time>
      </trkpt>
      <trkpt lat="43.86577" lon="-1.31957">
        <ele>21.29</ele>
        <time>2012-07-30T08:30:05Z</time>
      </trkpt>
      <trkpt lat="43.8655" lon="-1.32085">
        <ele>20.81</ele>
        <time>2012-07-30T08:30:23Z</time>
      </trkpt>
      <trkpt lat="43.86524" lon="-1.32216">
        <ele>21.29</ele>
        <time>2012-07-30T08:30:42Z</time>
      </trkpt>
      <trkpt lat="43.86485" lon="-1.32357">
        <ele>21.29</ele>
        <time>2012-07-30T08:30:59Z</time>
      </trkpt>
      <trkpt lat="43.86439" lon="-1.32469">
        <ele>22.25</ele>
        <time>2012-07-30T08:31:17Z</time>
      </trkpt>
      <trkpt lat="43.8637" lon="-1.32563">
        <ele>22.25</ele>
        <time>2012-07-30T08:31:34Z</time>
      </trkpt>
      <trkpt lat="43.86299" lon="-1.3265">
        <ele>22.73</ele>
        <time>2012-07-30T08:31:51Z</time>
      </trkpt>
      <trkpt lat="43.8623" lon="-1.32734">
        <ele>23.69</ele>
        <time>2012-07-30T08:32:08Z</time>
      </trkpt>
      <trkpt lat="43.86158" lon="-1.32819">
        <ele>24.17</ele>
        <time>2012-07-30T08:32:25Z</time>
      </trkpt>
      <trkpt lat="43.86091" lon="-1.32911">
        <ele>25.13</ele>
        <time>2012-07-30T08:32:42Z</time>
      </trkpt>
      <trkpt lat="43.86037" lon="-1.33015">
        <ele>25.61</ele>
        <time>2012-07-30T08:32:58Z</time>
      </trkpt>
      <trkpt lat="43.85999" lon="-1.33134">
        <ele>24.65</ele>
        <time>2012-07-30T08:33:13Z</time>
      </trkpt>
      <trkpt lat="43.85969" lon="-1.33253">
        <ele>23.69</ele>
        <time>2012-07-30T08:33:27Z</time>
      </trkpt>
      <trkpt lat="43.85938" lon="-1.33372">
        <ele>23.21</ele>
        <time>2012-07-30T08:33:41Z</time>
      </trkpt>
      <trkpt lat="43.85905" lon="-1.3349">
        <ele>22.73</ele>
        <time>2012-07-30T08:33:56Z</time>
      </trkpt>
      <trkpt lat="43.85855" lon="-1.33595">
        <ele>23.21</ele>
        <time>2012-07-30T08:34:12Z</time>
      </trkpt>
      <trkpt lat="43.85792" lon="-1.33693">
        <ele>25.13</ele>
        <time>2012-07-30T08:34:30Z</time>
      </trkpt>
      <trkpt lat="43.85726" lon="-1.33792">
        <ele>26.09</ele>
        <time>2012-07-30T08:34:47Z</time>
      </trkpt>
      <trkpt lat="43.85663" lon="-1.33885">
        <ele>26.57</ele>
        <time>2012-07-30T08:35:03Z</time>
      </trkpt>
      <trkpt lat="43.85599" lon="-1.33982">
        <ele>25.13</ele>
        <time>2012-07-30T08:35:18Z</time>
      </trkpt>
      <trkpt lat="43.85539" lon="-1.34077">
        <ele>24.17</ele>
        <time>2012-07-30T08:35:32Z</time>
      </trkpt>
      <trkpt lat="43.85486" lon="-1.34181">
        <ele>23.21</ele>
        <time>2012-07-30T08:35:46Z</time>
      </trkpt>
      <trkpt lat="43.85432" lon="-1.34285">
        <ele>22.25</ele>
        <time>2012-07-30T08:36:01Z</time>
      </trkpt>
      <trkpt lat="43.85374" lon="-1.344">
        <ele>21.77</ele>
        <time>2012-07-30T08:36:17Z</time>
      </trkpt>
      <trkpt lat="43.85318" lon="-1.3451">
        <ele>21.29</ele>
        <time>2012-07-30T08:36:33Z</time>
      </trkpt>
      <trkpt lat="43.85264" lon="-1.34616">
        <ele>20.81</ele>
        <time>2012-07-30T08:36:49Z</time>
      </trkpt>
      <trkpt lat="43.85208" lon="-1.34728">
        <ele>20.32</ele>
        <time>2012-07-30T08:37:04Z</time>
      </trkpt>
      <trkpt lat="43.85156" lon="-1.34836">
        <ele>20.32</ele>
        <time>2012-07-30T08:37:20Z</time>
      </trkpt>
      <trkpt lat="43.851" lon="-1.34946">
        <ele>19.84</ele>
        <time>2012-07-30T08:37:36Z</time>
      </trkpt>
      <trkpt lat="43.85039" lon="-1.35063">
        <ele>19.36</ele>
        <time>2012-07-30T08:37:52Z</time>
      </trkpt>
      <trkpt lat="43.84969" lon="-1.35164">
        <ele>19.36</ele>
        <time>2012-07-30T08:38:08Z</time>
      </trkpt>
      <trkpt lat="43.84889" lon="-1.35232">
        <ele>18.88</ele>
        <time>2012-07-30T08:38:24Z</time>
      </trkpt>
      <trkpt lat="43.84804" lon="-1.35284">
        <ele>19.36</ele>
        <time>2012-07-30T08:38:40Z</time>
      </trkpt>
      <trkpt lat="43.84719" lon="-1.35337">
        <ele>19.36</ele>
        <time>2012-07-30T08:38:59Z</time>
      </trkpt>
      <trkpt lat="43.84631" lon="-1.3539">
        <ele>20.81</ele>
        <time>2012-07-30T08:39:16Z</time>
      </trkpt>
      <trkpt lat="43.84542" lon="-1.35439">
        <ele>18.88</ele>
        <time>2012-07-30T08:39:32Z</time>
      </trkpt>
      <trkpt lat="43.84456" lon="-1.35488">
        <ele>18.4</ele>
        <time>2012-07-30T08:39:48Z</time>
      </trkpt>
      <trkpt lat="43.8437" lon="-1.3554">
        <ele>19.36</ele>
        <time>2012-07-30T08:40:07Z</time>
      </trkpt>
      <trkpt lat="43.84283" lon="-1.35592">
        <ele>18.88</ele>
        <time>2012-07-30T08:40:25Z</time>
      </trkpt>
      <trkpt lat="43.84195" lon="-1.35642">
        <ele>18.88</ele>
        <time>2012-07-30T08:40:42Z</time>
      </trkpt>
      <trkpt lat="43.84103" lon="-1.35698">
        <ele>18.88</ele>
        <time>2012-07-30T08:40:59Z</time>
      </trkpt>
      <trkpt lat="43.84012" lon="-1.3575">
        <ele>18.88</ele>
        <time>2012-07-30T08:41:15Z</time>
      </trkpt>
      <trkpt lat="43.8392" lon="-1.35804">
        <ele>18.88</ele>
        <time>2012-07-30T08:41:30Z</time>
      </trkpt>
      <trkpt lat="43.83831" lon="-1.35856">
        <ele>17.92</ele>
        <time>2012-07-30T08:41:44Z</time>
      </trkpt>
      <trkpt lat="43.83743" lon="-1.35907">
        <ele>18.4</ele>
        <time>2012-07-30T08:41:58Z</time>
      </trkpt>
      <trkpt lat="43.83653" lon="-1.35944">
        <ele>17.92</ele>
        <time>2012-07-30T08:42:12Z</time>
      </trkpt>
      <trkpt lat="43.83558" lon="-1.35953">
        <ele>17.44</ele>
        <time>2012-07-30T08:42:26Z</time>
      </trkpt>
      <trkpt lat="43.83462" lon="-1.3595">
        <ele>17.92</ele>
        <time>2012-07-30T08:42:39Z</time>
      </trkpt>
      <trkpt lat="43.83367" lon="-1.35946">
        <ele>17.44</ele>
        <time>2012-07-30T08:42:53Z</time>
      </trkpt>
      <trkpt lat="43.83275" lon="-1.35962">
        <ele>17.44</ele>
        <time>2012-07-30T08:43:07Z</time>
      </trkpt>
      <trkpt lat="43.83188" lon="-1.36004">
        <ele>16.96</ele>
        <time>2012-07-30T08:43:21Z</time>
      </trkpt>
      <trkpt lat="43.83103" lon="-1.36052">
        <ele>16.96</ele>
        <time>2012-07-30T08:43:36Z</time>
      </trkpt>
      <trkpt lat="43.83015" lon="-1.36104">
        <ele>16</ele>
        <time>2012-07-30T08:43:50Z</time>
      </trkpt>
      <trkpt lat="43.82927" lon="-1.36153">
        <ele>16</ele>
        <time>2012-07-30T08:44:04Z</time>
      </trkpt>
      <trkpt lat="43.8284" lon="-1.36203">
        <ele>15.04</ele>
        <time>2012-07-30T08:44:18Z</time>
      </trkpt>
      <trkpt lat="43.82753" lon="-1.36253">
        <ele>15.04</ele>
        <time>2012-07-30T08:44:32Z</time>
      </trkpt>
      <trkpt lat="43.82668" lon="-1.36301">
        <ele>15.52</ele>
        <time>2012-07-30T08:44:46Z</time>
      </trkpt>
      <trkpt lat="43.82583" lon="-1.3635">
        <ele>14.56</ele>
        <time>2012-07-30T08:45:00Z</time>
      </trkpt>
      <trkpt lat="43.82497" lon="-1.36399">
        <ele>15.52</ele>
        <time>2012-07-30T08:45:14Z</time>
      </trkpt>
      <trkpt lat="43.82408" lon="-1.3645">
        <ele>15.04</ele>
        <time>2012-07-30T08:45:28Z</time>
      </trkpt>
      <trkpt lat="43.82323" lon="-1.36496">
        <ele>14.56</ele>
        <time>2012-07-30T08:45:41Z</time>
      </trkpt>
      <trkpt lat="43.82233" lon="-1.36548">
        <ele>13.6</ele>
        <time>2012-07-30T08:45:56Z</time>
      </trkpt>
      <trkpt lat="43.82142" lon="-1.36599">
        <ele>14.08</ele>
        <time>2012-07-30T08:46:11Z</time>
      </trkpt>
      <trkpt lat="43.82051" lon="-1.36652">
        <ele>12.63</ele>
        <time>2012-07-30T08:46:26Z</time>
      </trkpt>
      <trkpt lat="43.81955" lon="-1.36704">
        <ele>12.15</ele>
        <time>2012-07-30T08:46:41Z</time>
      </trkpt>
      <trkpt lat="43.81864" lon="-1.36747">
        <ele>11.67</ele>
        <time>2012-07-30T08:46:56Z</time>
      </trkpt>
      <trkpt lat="43.81772" lon="-1.36764">
        <ele>12.15</ele>
        <time>2012-07-30T08:47:11Z</time>
      </trkpt>
      <trkpt lat="43.81676" lon="-1.36778">
        <ele>11.67</ele>
        <time>2012-07-30T08:47:27Z</time>
      </trkpt>
      <trkpt lat="43.81578" lon="-1.36797">
        <ele>12.15</ele>
        <time>2012-07-30T08:47:43Z</time>
      </trkpt>
      <trkpt lat="43.81478" lon="-1.36815">
        <ele>11.67</ele>
        <time>2012-07-30T08:47:58Z</time>
      </trkpt>
      <trkpt lat="43.81387" lon="-1.36844">
        <ele>11.19</ele>
        <time>2012-07-30T08:48:12Z</time>
      </trkpt>
      <trkpt lat="43.81299" lon="-1.36902">
        <ele>11.19</ele>
        <time>2012-07-30T08:48:27Z</time>
      </trkpt>
      <trkpt lat="43.81223" lon="-1.36978">
        <ele>10.23</ele>
        <time>2012-07-30T08:48:41Z</time>
      </trkpt>
      <trkpt lat="43.81145" lon="-1.37056">
        <ele>9.75</ele>
        <time>2012-07-30T08:48:55Z</time>
      </trkpt>
      <trkpt lat="43.8107" lon="-1.3713">
        <ele>9.75</ele>
        <time>2012-07-30T08:49:09Z</time>
      </trkpt>
      <trkpt lat="43.80996" lon="-1.37204">
        <ele>9.75</ele>
        <time>2012-07-30T08:49:24Z</time>
      </trkpt>
      <trkpt lat="43.80925" lon="-1.37272">
        <ele>9.75</ele>
        <time>2012-07-30T08:49:44Z</time>
      </trkpt>
      <trkpt lat="43.80845" lon="-1.37347">
        <ele>8.31</ele>
        <time>2012-07-30T08:49:59Z</time>
      </trkpt>
      <trkpt lat="43.80771" lon="-1.37427">
        <ele>8.79</ele>
        <time>2012-07-30T08:50:13Z</time>
      </trkpt>
      <trkpt lat="43.80695" lon="-1.37501">
        <ele>8.31</ele>
        <time>2012-07-30T08:50:27Z</time>
      </trkpt>
      <trkpt lat="43.80618" lon="-1.37577">
        <ele>7.35</ele>
        <time>2012-07-30T08:50:41Z</time>
      </trkpt>
      <trkpt lat="43.80541" lon="-1.37651">
        <ele>7.83</ele>
        <time>2012-07-30T08:50:56Z</time>
      </trkpt>
      <trkpt lat="43.8046" lon="-1.37734">
        <ele>6.39</ele>
        <time>2012-07-30T08:51:13Z</time>
      </trkpt>
      <trkpt lat="43.80381" lon="-1.37809">
        <ele>5.91</ele>
        <time>2012-07-30T08:51:26Z</time>
      </trkpt>
      <trkpt lat="43.80303" lon="-1.37887">
        <ele>4.94</ele>
        <time>2012-07-30T08:51:39Z</time>
      </trkpt>
      <trkpt lat="43.80226" lon="-1.37964">
        <ele>4.94</ele>
        <time>2012-07-30T08:51:52Z</time>
      </trkpt>
      <trkpt lat="43.80148" lon="-1.38042">
        <ele>5.42</ele>
        <time>2012-07-30T08:52:06Z</time>
      </trkpt>
      <trkpt lat="43.80065" lon="-1.38106">
        <ele>4.94</ele>
        <time>2012-07-30T08:52:21Z</time>
      </trkpt>
      <trkpt lat="43.7998" lon="-1.38153">
        <ele>5.42</ele>
        <time>2012-07-30T08:52:36Z</time>
      </trkpt>
      <trkpt lat="43.79897" lon="-1.38201">
        <ele>4.46</ele>
        <time>2012-07-30T08:52:51Z</time>
      </trkpt>
      <trkpt lat="43.79813" lon="-1.3825">
        <ele>6.39</ele>
        <time>2012-07-30T08:53:07Z</time>
      </trkpt>
      <trkpt lat="43.79729" lon="-1.38299">
        <ele>6.87</ele>
        <time>2012-07-30T08:53:33Z</time>
      </trkpt>
      <trkpt lat="43.79655" lon="-1.38379">
        <ele>5.91</ele>
        <time>2012-07-30T08:53:54Z</time>
      </trkpt>
      <trkpt lat="43.79581" lon="-1.38465">
        <ele>5.91</ele>
        <time>2012-07-30T08:54:11Z</time>
      </trkpt>
      <trkpt lat="43.79512" lon="-1.38553">
        <ele>5.91</ele>
        <time>2012-07-30T08:54:29Z</time>
      </trkpt>
      <trkpt lat="43.79439" lon="-1.38637">
        <ele>5.42</ele>
        <time>2012-07-30T08:54:46Z</time>
      </trkpt>
      <trkpt lat="43.7937" lon="-1.38723">
        <ele>5.91</ele>
        <time>2012-07-30T08:55:02Z</time>
      </trkpt>
      <trkpt lat="43.79301" lon="-1.38806">
        <ele>5.42</ele>
        <time>2012-07-30T08:55:17Z</time>
      </trkpt>
      <trkpt lat="43.79228" lon="-1.38895">
        <ele>5.42</ele>
        <time>2012-07-30T08:55:31Z</time>
      </trkpt>
      <trkpt lat="43.79154" lon="-1.3898">
        <ele>4.46</ele>
        <time>2012-07-30T08:55:46Z</time>
      </trkpt>
      <trkpt lat="43.79087" lon="-1.39065">
        <ele>5.42</ele>
        <time>2012-07-30T08:56:01Z</time>
      </trkpt>
      <trkpt lat="43.79014" lon="-1.39153">
        <ele>4.46</ele>
        <time>2012-07-30T08:56:16Z</time>
      </trkpt>
      <trkpt lat="43.78944" lon="-1.39235">
        <ele>5.42</ele>
        <time>2012-07-30T08:56:31Z</time>
      </trkpt>
      <trkpt lat="43.78877" lon="-1.39317">
        <ele>5.91</ele>
        <time>2012-07-30T08:56:50Z</time>
      </trkpt>
      <trkpt lat="43.78809" lon="-1.394">
        <ele>4.94</ele>
        <time>2012-07-30T08:57:06Z</time>
      </trkpt>
      <trkpt lat="43.78729" lon="-1.39471">
        <ele>4.94</ele>
        <time>2012-07-30T08:57:22Z</time>
      </trkpt>
      <trkpt lat="43.78642" lon="-1.39521">
        <ele>4.94</ele>
        <time>2012-07-30T08:57:38Z</time>
      </trkpt>
      <trkpt lat="43.78554" lon="-1.39556">
        <ele>4.94</ele>
        <time>2012-07-30T08:57:56Z</time>
      </trkpt>
      <trkpt lat="43.78463" lon="-1.39592">
        <ele>4.46</ele>
        <time>2012-07-30T08:58:14Z</time>
      </trkpt>
      <trkpt lat="43.78375" lon="-1.39624">
        <ele>4.46</ele>
        <time>2012-07-30T08:58:31Z</time>
      </trkpt>
      <trkpt lat="43.78283" lon="-1.39632">
        <ele>5.42</ele>
        <time>2012-07-30T08:58:49Z</time>
      </trkpt>
      <trkpt lat="43.7827" lon="-1.39517">
        <ele>4.94</ele>
        <time>2012-07-30T08:59:21Z</time>
      </trkpt>
      <trkpt lat="43.78289" lon="-1.39392">
        <ele>4.94</ele>
        <time>2012-07-30T08:59:53Z</time>
      </trkpt>
      <trkpt lat="43.78291" lon="-1.39268">
        <ele>5.42</ele>
        <time>2012-07-30T09:00:21Z</time>
      </trkpt>
    </trkseg>
  </trk>
</gpx>